Time;durP1;ratioP1;P1;durP2;ratioP2;P2;SDS_P1;SDS_P2;PMS_P1;PMS_P2;Temp;Humidity;BMP_temperature;BMP_pressure;BME280_temperature;BME280_humidity;BME280_pressure;Samples;Min_cycle;Max_cycle;Signal;HPM_P1;HPM_P2
2023/08/04 00:01:10;;;;;;;20.47;7.17;;;;;;;15.30;100.00;100192.94;7369300;19;20498;-48
2023/08/04 00:03:40;;;;;;;9.60;3.90;;;;;;;15.24;100.00;100197.19;7394005;19;20458;-48
2023/08/04 00:06:11;;;;;;;5.50;3.30;;;;;;;15.22;100.00;100203.22;7370425;19;20415;-46
2023/08/04 00:08:43;;;;;;;10.27;5.10;;;;;;;15.22;100.00;100213.59;7393720;19;20416;-48
2023/08/04 00:11:12;;;;;;;10.53;3.07;;;;;;;15.18;100.00;100222.22;7369852;19;20435;-46
2023/08/04 00:13:42;;;;;;;8.23;2.87;;;;;;;15.18;100.00;100233.47;7392576;19;20441;-47
2023/08/04 00:16:12;;;;;;;12.30;5.17;;;;;;;15.17;100.00;100234.31;7367742;19;20427;-46
2023/08/04 00:18:42;;;;;;;9.80;3.70;;;;;;;15.17;100.00;100244.72;7389731;19;20404;-47
2023/08/04 00:21:11;;;;;;;6.70;3.03;;;;;;;15.13;100.00;100258.53;7366365;19;20822;-46
2023/08/04 00:23:43;;;;;;;9.53;3.20;;;;;;;15.16;100.00;100263.75;7391131;19;20806;-48
2023/08/04 00:26:13;;;;;;;10.47;2.77;;;;;;;15.09;100.00;100270.59;7368232;19;20434;-50
2023/08/04 00:28:43;;;;;;;12.43;4.13;;;;;;;15.05;100.00;100278.31;7389915;19;20407;-48
2023/08/04 00:31:14;;;;;;;9.80;4.50;;;;;;;15.08;100.00;100278.38;7367130;19;20435;-48
2023/08/04 00:33:43;;;;;;;15.00;4.20;;;;;;;15.09;100.00;100277.53;7390485;19;20474;-48
2023/08/04 00:36:13;;;;;;;11.13;3.90;;;;;;;15.09;100.00;100282.72;7367624;19;20470;-50
2023/08/04 00:38:45;;;;;;;8.07;3.60;;;;;;;15.09;100.00;100282.72;7390334;19;20422;-48
2023/08/04 00:41:15;;;;;;;8.00;4.27;;;;;;;15.12;100.00;100280.16;7365765;19;20435;-47
2023/08/04 00:43:44;;;;;;;6.83;3.20;;;;;;;15.03;100.00;100285.22;7390847;19;20515;-49
2023/08/04 00:46:14;;;;;;;10.37;3.20;;;;;;;14.98;100.00;100286.00;7367003;19;20451;-50
2023/08/04 00:48:43;;;;;;;8.77;3.60;;;;;;;14.92;100.00;100288.50;7391025;19;20415;-49
2023/08/04 00:51:13;;;;;;;9.30;3.57;;;;;;;14.83;100.00;100285.78;7366659;19;20946;-48
2023/08/04 00:53:45;;;;;;;14.43;3.70;;;;;;;14.79;100.00;100273.56;7390530;19;20523;-47
2023/08/04 00:56:15;;;;;;;8.83;3.20;;;;;;;14.69;100.00;100270.81;7366003;19;20459;-48
2023/08/04 00:58:45;;;;;;;11.37;4.50;;;;;;;14.67;100.00;100269.88;7391223;19;20411;-49
2023/08/04 01:01:14;;;;;;;19.30;4.00;;;;;;;14.64;100.00;100263.75;7364387;19;20435;-48
2023/08/04 01:03:44;;;;;;;13.23;3.40;;;;;;;14.61;100.00;100264.59;7390138;19;20447;-47
2023/08/04 01:06:19;;;;;;;6.50;2.90;;;;;;;14.50;100.00;100250.56;7365130;19;20480;-50
2023/08/04 01:08:55;;;;;;;8.10;4.30;;;;;;;14.48;100.00;100247.94;7388765;19;20406;-48
2023/08/04 01:11:28;;;;;;;17.83;4.00;;;;;;;14.41;100.00;100241.75;7367690;19;20510;-46
2023/08/04 01:13:57;;;;;;;9.10;3.20;;;;;;;14.34;100.00;100239.91;7391631;19;20444;-48
2023/08/04 01:16:27;;;;;;;9.87;3.70;;;;;;;14.28;100.00;100234.59;7367772;19;20451;-45
2023/08/04 01:19:00;;;;;;;8.97;3.20;;;;;;;14.22;100.00;100230.19;7394483;19;20998;-49
2023/08/04 01:21:41;;;;;;;11.90;4.63;;;;;;;14.17;100.00;100221.44;7366514;19;20981;-47
2023/08/04 01:24:11;;;;;;;10.50;3.30;;;;;;;14.08;100.00;100216.94;7393332;19;20453;-50
2023/08/04 01:26:45;;;;;;;14.67;3.80;;;;;;;14.08;100.00;100214.34;7367622;19;20454;-46
2023/08/04 01:29:17;;;;;;;17.33;4.43;;;;;;;14.00;100.00;100218.53;7393493;19;20403;-48
2023/08/04 01:31:47;;;;;;;11.60;4.87;;;;;;;14.01;100.00;100215.09;7367083;19;21039;-46
2023/08/04 01:34:16;;;;;;;16.30;4.60;;;;;;;13.94;100.00;100218.41;7392165;19;20435;-46
2023/08/04 01:36:49;;;;;;;11.83;3.77;;;;;;;13.94;100.00;100208.03;7367724;19;20424;-47
2023/08/04 01:39:18;;;;;;;9.80;3.60;;;;;;;13.90;100.00;100204.50;7391568;19;21170;-48
2023/08/04 01:41:48;;;;;;;14.63;4.57;;;;;;;13.91;100.00;100208.84;7366416;19;20449;-45
2023/08/04 01:44:18;;;;;;;9.73;3.50;;;;;;;13.89;100.00;100205.34;7391144;19;20515;-47
2023/08/04 01:46:47;;;;;;;7.70;3.30;;;;;;;13.86;100.00;100200.09;7368007;19;20427;-48
2023/08/04 01:49:17;;;;;;;17.57;4.17;;;;;;;13.91;100.00;100209.72;7392606;19;20487;-51
2023/08/04 01:51:49;;;;;;;13.83;3.50;;;;;;;13.95;100.00;100209.78;7367324;19;20489;-47
2023/08/04 01:54:19;;;;;;;7.57;4.13;;;;;;;13.98;100.00;100213.31;7390982;19;20454;-51
2023/08/04 01:56:48;;;;;;;12.70;4.10;;;;;;;13.96;100.00;100216.72;7367534;19;20534;-49
2023/08/04 01:59:18;;;;;;;9.63;3.80;;;;;;;13.91;100.00;100220.06;7392843;19;20398;-47
2023/08/04 02:01:47;;;;;;;10.30;3.73;;;;;;;13.90;100.00;100223.53;7364963;19;20431;-51
2023/08/04 02:04:17;;;;;;;9.73;4.30;;;;;;;13.95;100.00;100225.34;7390394;19;20432;-45
2023/08/04 02:06:50;;;;;;;5.63;3.40;;;;;;;13.91;100.00;100222.66;7366931;19;20437;-48
2023/08/04 02:09:21;;;;;;;6.10;3.70;;;;;;;13.94;100.00;100229.63;7390252;19;20772;-49
2023/08/04 02:11:50;;;;;;;15.90;4.63;;;;;;;13.90;100.00;100233.03;7366181;19;20443;-47
2023/08/04 02:14:20;;;;;;;11.17;3.70;;;;;;;13.88;100.00;100233.00;7390197;19;20529;-50
2023/08/04 02:16:50;;;;;;;15.17;4.20;;;;;;;13.94;100.00;100244.34;7367143;19;20435;-48
2023/08/04 02:19:20;;;;;;;10.30;4.37;;;;;;;13.91;100.00;100246.00;7394863;19;20411;-47
2023/08/04 02:21:53;;;;;;;10.33;4.40;;;;;;;13.96;100.00;100247.84;7372885;19;20462;-47
2023/08/04 02:24:22;;;;;;;5.80;3.97;;;;;;;13.91;100.00;100251.19;7396360;19;20446;-50
2023/08/04 02:26:52;;;;;;;9.90;3.83;;;;;;;13.87;100.00;100259.78;7373498;19;20978;-48
2023/08/04 02:29:21;;;;;;;13.53;4.40;;;;;;;13.89;100.00;100255.50;7396336;19;20403;-49
2023/08/04 02:31:51;;;;;;;12.23;4.30;;;;;;;13.91;100.00;100260.72;7373965;19;20427;-48
2023/08/04 02:34:21;;;;;;;11.40;4.13;;;;;;;13.95;100.00;100264.25;7395821;19;20455;-49
2023/08/04 02:36:53;;;;;;;8.73;3.80;;;;;;;13.98;100.00;100272.06;7373671;19;20439;-46
2023/08/04 02:39:22;;;;;;;9.87;3.90;;;;;;;13.97;100.00;100275.50;7396436;19;20395;-44
2023/08/04 02:41:52;;;;;;;10.43;4.33;;;;;;;13.98;100.00;100272.97;7372005;19;20439;-46
2023/08/04 02:44:21;;;;;;;8.90;3.80;;;;;;;14.04;100.00;100277.38;7395738;19;20443;-46
2023/08/04 02:46:51;;;;;;;7.80;4.57;;;;;;;14.07;100.00;100281.75;7372825;19;20423;-44
2023/08/04 02:49:21;;;;;;;9.17;3.87;;;;;;;14.08;100.00;100284.38;7396156;19;20403;-47
2023/08/04 02:51:53;;;;;;;9.43;3.87;;;;;;;14.12;100.00;100281.03;7372964;19;20447;-43
2023/08/04 02:54:22;;;;;;;11.33;3.90;;;;;;;14.11;100.00;100284.44;7395599;19;20514;-46
2023/08/04 02:56:52;;;;;;;11.00;4.70;;;;;;;14.14;100.00;100294.00;7373346;19;20865;-46
2023/08/04 02:59:22;;;;;;;6.63;3.67;;;;;;;14.12;100.00;100294.00;7398445;19;20437;-47
2023/08/04 03:01:51;;;;;;;9.80;3.90;;;;;;;14.13;100.00;100298.31;7370909;19;20518;-45
2023/08/04 03:04:21;;;;;;;8.43;3.90;;;;;;;14.13;100.00;100293.13;7394855;19;20462;-46
2023/08/04 03:06:53;;;;;;;10.53;4.30;;;;;;;14.13;100.00;100313.88;7373170;19;20514;-46
2023/08/04 03:09:23;;;;;;;11.20;4.90;;;;;;;14.20;100.00;100308.81;7395988;19;20482;-46
2023/08/04 03:11:52;;;;;;;11.50;4.70;;;;;;;14.10;100.00;100319.00;7372359;19;20426;-48
2023/08/04 03:14:22;;;;;;;10.50;4.70;;;;;;;14.13;100.00;100328.56;7396996;19;20522;-51
2023/08/04 03:16:52;;;;;;;13.50;4.93;;;;;;;14.10;100.00;100328.53;7372815;19;20426;-49
2023/08/04 03:19:22;;;;;;;11.70;4.40;;;;;;;14.06;100.00;100330.19;7397874;19;20963;-50
2023/08/04 03:21:54;;;;;;;14.90;5.20;;;;;;;14.03;100.00;100338.78;7371039;19;20793;-49
2023/08/04 03:24:23;;;;;;;15.50;6.23;;;;;;;14.02;100.00;100337.03;7395277;19;20439;-46
2023/08/04 03:26:53;;;;;;;11.70;5.87;;;;;;;14.02;100.00;100337.03;7372552;19;20805;-45
2023/08/04 03:29:23;;;;;;;19.77;5.03;;;;;;;13.98;100.00;100340.38;7394601;19;20422;-46
2023/08/04 03:31:52;;;;;;;16.73;5.00;;;;;;;13.99;100.00;100346.44;7371789;19;20794;-49
2023/08/04 03:34:22;;;;;;;9.47;4.73;;;;;;;13.98;100.00;100348.16;7394642;19;20451;-45
2023/08/04 03:36:54;;;;;;;13.77;5.20;;;;;;;13.98;100.00;100344.69;7372283;19;20818;-45
2023/08/04 03:39:24;;;;;;;8.53;4.83;;;;;;;13.97;100.00;100349.00;7394360;19;20403;-46
2023/08/04 03:41:53;;;;;;;11.67;4.70;;;;;;;14.00;100.00;100349.06;7371091;19;20427;-50
2023/08/04 03:44:23;;;;;;;11.07;5.97;;;;;;;14.02;100.00;100346.50;7395275;19;20942;-44
2023/08/04 03:46:53;;;;;;;11.20;5.83;;;;;;;14.10;100.00;100351.88;7371879;19;20438;-46
2023/08/04 03:49:22;;;;;;;10.00;5.30;;;;;;;14.03;100.00;100354.34;7394705;19;20415;-45
2023/08/04 03:51:54;;;;;;;12.10;5.40;;;;;;;14.00;100.00;100356.00;7371733;19;20435;-45
2023/08/04 03:54:24;;;;;;;11.10;5.40;;;;;;;13.98;100.00;100360.25;7394234;19;21118;-46
2023/08/04 03:56:53;;;;;;;12.23;4.90;;;;;;;14.06;100.00;100358.72;7371689;19;20439;-49
2023/08/04 03:59:23;;;;;;;18.47;5.20;;;;;;;14.03;100.00;100353.44;7393938;19;20408;-46
2023/08/04 04:01:53;;;;;;;14.63;5.60;;;;;;;14.05;100.00;100351.75;7370702;19;20434;-45
2023/08/04 04:04:22;;;;;;;13.13;5.60;;;;;;;14.00;100.00;100356.84;7393926;19;21004;-45
2023/08/04 04:06:55;;;;;;;16.83;5.17;;;;;;;14.03;100.00;100361.22;7371200;19;20439;-45
2023/08/04 04:09:24;;;;;;;14.77;4.97;;;;;;;14.02;100.00;100367.25;7394304;19;20431;-48
2023/08/04 04:11:54;;;;;;;14.93;5.47;;;;;;;14.03;100.00;100358.63;7370845;19;20754;-52
2023/08/04 04:14:23;;;;;;;17.37;5.00;;;;;;;14.02;100.00;100369.84;7393970;19;20461;-46
2023/08/04 04:16:53;;;;;;;10.93;5.03;;;;;;;14.04;100.00;100365.56;7370781;19;20506;-47
2023/08/04 04:19:22;;;;;;;13.13;5.90;;;;;;;14.08;100.00;100371.69;7393463;19;20406;-46
2023/08/04 04:21:55;;;;;;;10.70;4.37;;;;;;;14.09;100.00;100365.69;7371119;19;20452;-47
2023/08/04 04:24:24;;;;;;;9.97;4.87;;;;;;;14.11;100.00;100367.44;7394195;19;20444;-46
2023/08/04 04:26:54;;;;;;;10.23;4.83;;;;;;;14.12;100.00;100366.63;7371330;19;20433;-46
2023/08/04 04:29:23;;;;;;;9.50;4.40;;;;;;;14.14;100.00;100366.63;7393560;19;20478;-48
2023/08/04 04:31:53;;;;;;;7.80;4.80;;;;;;;14.14;100.00;100380.50;7371059;19;20439;-49
2023/08/04 04:34:23;;;;;;;6.97;4.03;;;;;;;14.17;100.00;100377.94;7393164;19;20851;-48
2023/08/04 04:36:57;;;;;;;10.83;4.60;;;;;;;14.13;100.00;100383.03;7370646;19;20843;-49
2023/08/04 04:39:27;;;;;;;15.60;5.00;;;;;;;14.14;100.00;100393.47;7394030;19;20470;-45
2023/08/04 04:41:57;;;;;;;11.20;5.27;;;;;;;14.12;100.00;100389.97;7368601;19;20494;-46
2023/08/04 04:44:26;;;;;;;10.37;4.80;;;;;;;14.14;100.00;100397.75;7393477;19;20455;-48
2023/08/04 04:46:56;;;;;;;17.90;5.37;;;;;;;14.09;100.00;100410.63;7370238;19;20438;-47
2023/08/04 04:49:25;;;;;;;8.10;4.83;;;;;;;14.10;100.00;100409.78;7393743;19;20428;-47
2023/08/04 04:51:58;;;;;;;14.67;4.80;;;;;;;14.10;100.00;100422.75;7369505;19;20448;-44
2023/08/04 04:54:27;;;;;;;11.70;5.00;;;;;;;14.10;100.00;100424.50;7392275;19;20447;-44
2023/08/04 04:56:57;;;;;;;9.73;4.50;;;;;;;14.09;100.00;100426.19;7370169;19;20527;-42
2023/08/04 04:59:26;;;;;;;8.93;4.83;;;;;;;14.10;100.00;100429.69;7393763;19;20407;-48
2023/08/04 05:01:56;;;;;;;10.20;4.40;;;;;;;14.05;100.00;100445.13;7369073;19;20438;-47
2023/08/04 05:04:26;;;;;;;10.33;4.17;;;;;;;14.03;100.00;100446.81;7392604;19;20456;-43
2023/08/04 05:06:58;;;;;;;16.30;4.80;;;;;;;14.04;100.00;100441.66;7369401;19;20434;-46
2023/08/04 05:09:27;;;;;;;7.67;4.53;;;;;;;14.09;100.00;100443.50;7392930;19;20471;-46
2023/08/04 05:11:57;;;;;;;12.83;4.77;;;;;;;14.13;100.00;100443.59;7367644;19;20522;-45
2023/08/04 05:14:27;;;;;;;18.87;5.13;;;;;;;14.13;100.00;100445.31;7392841;19;20451;-47
2023/08/04 05:16:56;;;;;;;12.07;4.50;;;;;;;14.17;100.00;100444.53;7369051;19;20427;-45
2023/08/04 05:19:26;;;;;;;17.07;4.73;;;;;;;14.25;100.00;100444.72;7393044;19;20419;-46
2023/08/04 05:21:58;;;;;;;9.97;4.30;;;;;;;14.29;100.00;100437.03;7368953;19;20423;-44
2023/08/04 05:24:27;;;;;;;13.27;4.93;;;;;;;14.34;100.00;100452.69;7392205;19;20436;-45
2023/08/04 05:26:57;;;;;;;7.97;4.53;;;;;;;14.37;100.00;100446.69;7369656;19;20514;-47
2023/08/04 05:29:26;;;;;;;13.83;4.80;;;;;;;14.31;100.00;100444.84;7391415;19;20486;-47
2023/08/04 05:31:56;;;;;;;8.20;4.90;;;;;;;14.37;100.00;100442.38;7368518;19;20423;-47
2023/08/04 05:34:26;;;;;;;12.57;4.57;;;;;;;14.43;100.00;100441.63;7392177;19;20462;-46
2023/08/04 05:36:58;;;;;;;7.83;4.27;;;;;;;14.43;100.00;100452.00;7368133;19;20502;-45
2023/08/04 05:39:27;;;;;;;11.23;4.63;;;;;;;14.52;100.00;100448.72;7391959;19;20407;-50
2023/08/04 05:41:57;;;;;;;32.37;7.63;;;;;;;14.62;100.00;100448.09;7368352;19;20449;-43
2023/08/04 05:44:26;;;;;;;12.07;5.77;;;;;;;14.66;100.00;100449.03;7391566;19;20456;-47
2023/08/04 05:46:56;;;;;;;12.40;4.43;;;;;;;14.70;100.00;100458.59;7368558;19;20451;-44
2023/08/04 05:49:26;;;;;;;11.80;4.20;;;;;;;14.71;100.00;100469.03;7390907;19;20467;-44
2023/08/04 05:51:58;;;;;;;9.27;4.50;;;;;;;14.76;100.00;100482.13;7367200;19;21037;-46
2023/08/04 05:54:27;;;;;;;8.70;3.93;;;;;;;14.76;100.00;100487.31;7391653;19;20514;-50
2023/08/04 05:56:57;;;;;;;7.90;3.70;;;;;;;14.85;100.00;100500.50;7367990;19;20436;-46
2023/08/04 05:59:26;;;;;;;7.67;3.40;;;;;;;14.90;100.00;100510.09;7391327;19;20834;-44
2023/08/04 06:01:56;;;;;;;8.20;4.00;;;;;;;14.95;100.00;100526.66;7367133;19;20527;-49
2023/08/04 06:04:26;;;;;;;7.03;4.00;;;;;;;14.98;100.00;100545.75;7391014;19;20796;-45
2023/08/04 06:06:58;;;;;;;9.10;3.40;;;;;;;14.97;100.00;100549.22;7367047;19;20440;-45
2023/08/04 06:09:28;;;;;;;15.70;3.90;;;;;;;15.07;100.00;100559.81;7391008;19;20937;-47
2023/08/04 06:11:57;;;;;;;10.83;3.93;;;;;;;15.03;100.00;100566.63;7366732;19;20506;-48
2023/08/04 06:14:27;;;;;;;13.93;4.07;;;;;;;15.17;100.00;100576.47;7391007;19;20876;-48
2023/08/04 06:16:56;;;;;;;14.20;5.47;;;;;;;15.19;100.00;100580.84;7367682;19;20443;-45
2023/08/04 06:19:26;;;;;;;13.80;4.70;;;;;;;15.22;100.00;100582.59;7390551;19;20950;-49
2023/08/04 06:21:59;;;;;;;9.53;3.70;;;;;;;15.22;100.00;100586.09;7366783;19;20502;-43
2023/08/04 06:24:29;;;;;;;8.93;3.43;;;;;;;15.24;100.00;100589.59;7390375;19;20522;-49
2023/08/04 06:26:59;;;;;;;7.77;3.10;;;;;;;15.28;100.00;100594.84;7368979;19;20511;-46
2023/08/04 06:29:28;;;;;;;6.73;4.00;;;;;;;15.35;100.00;100596.72;7390077;19;20408;-47
2023/08/04 06:31:58;;;;;;;10.10;3.60;;;;;;;15.30;100.00;100599.25;7368493;19;20447;-47
2023/08/04 06:34:27;;;;;;;11.83;3.30;;;;;;;15.35;100.00;100596.72;7390454;19;20454;-46
2023/08/04 06:37:00;;;;;;;5.83;3.13;;;;;;;15.36;100.00;100598.47;7366883;19;20499;-44
2023/08/04 06:39:29;;;;;;;8.37;3.20;;;;;;;15.30;100.00;100603.56;7390163;19;20408;-47
2023/08/04 06:41:59;;;;;;;7.17;3.33;;;;;;;15.23;100.00;100612.97;7368556;19;20435;-44
2023/08/04 06:44:28;;;;;;;8.60;2.97;;;;;;;15.27;100.00;100627.75;7389046;19;21030;-45
2023/08/04 06:46:58;;;;;;;10.17;3.20;;;;;;;15.27;100.00;100619.09;7368602;19;20788;-45
2023/08/04 06:49:28;;;;;;;8.07;3.37;;;;;;;15.29;100.00;100618.28;7389257;19;20407;-48
2023/08/04 06:52:00;;;;;;;8.80;3.00;;;;;;;15.37;100.00;100618.41;7366294;19;20530;-48
2023/08/04 06:54:29;;;;;;;7.60;3.30;;;;;;;15.33;100.00;100614.88;7390409;19;20472;-43
2023/08/04 06:56:59;;;;;;;19.23;4.17;;;;;;;15.37;100.00;100618.41;7368498;19;20431;-44
2023/08/04 06:59:28;;;;;;;7.23;3.30;;;;;;;15.38;100.00;100622.75;7389115;19;21105;-45
2023/08/04 07:01:58;;;;;;;9.53;2.70;;;;;;;15.46;100.00;100621.22;7366544;19;20439;-44
2023/08/04 07:04:28;;;;;;;11.77;3.03;;;;;;;15.52;100.00;100626.53;7391302;19;20502;-44
2023/08/04 07:07:00;;;;;;;9.13;4.80;;;;;;;15.67;100.00;100625.06;7374946;19;20441;-47
2023/08/04 07:09:30;;;;;;;7.60;4.03;;;;;;;15.80;100.00;100634.84;7395963;19;20415;-45
2023/08/04 07:11:59;;;;;;;7.17;2.87;;;;;;;15.84;100.00;100634.91;7374150;19;21056;-45
2023/08/04 07:14:29;;;;;;;6.50;3.70;;;;;;;15.89;100.00;100641.06;7395466;19;20445;-47
2023/08/04 07:16:59;;;;;;;13.33;6.63;;;;;;;15.84;100.00;100648.78;7374581;19;20463;-44
2023/08/04 07:19:28;;;;;;;9.83;2.47;;;;;;;15.77;100.00;100662.50;7394977;19;20399;-50
2023/08/04 07:22:00;;;;;;;5.30;2.93;;;;;;;15.75;100.00;100659.88;7374312;19;20435;-48
2023/08/04 07:24:30;;;;;;;7.40;2.80;;;;;;;15.73;100.00;100671.97;7395330;19;20448;-52
2023/08/04 07:27:01;;;;;;;5.50;2.43;;;;;;;15.74;100.00;100691.94;7375095;19;20447;-47
2023/08/04 07:29:33;;;;;;;4.43;2.20;;;;;;;15.83;100.00;100696.44;7395221;19;20420;-51
2023/08/04 07:32:03;;;;;;;9.10;2.87;;;;;;;16.04;100.00;100697.72;7373988;19;20533;-46
2023/08/04 07:34:32;;;;;;;5.30;2.60;;;;;;;16.02;100.00;100702.91;7395597;19;20455;-50
2023/08/04 07:37:05;;;;;;;10.90;2.60;;;;;;;16.17;100.00;100722.25;7371383;19;20474;-47
2023/08/04 07:39:34;;;;;;;4.53;2.50;;;;;;;16.38;100.00;100736.50;7370531;19;22583;-48
2023/08/04 07:42:04;;;;;;;14.67;8.60;;;;;;;16.52;100.00;100739.34;7393719;19;20407;-51
2023/08/04 07:44:35;;;;;;;10.17;3.50;;;;;;;16.52;100.00;100753.25;7382335;19;20522;-50
2023/08/04 07:47:05;;;;;;;5.50;3.00;;;;;;;16.58;100.00;100773.31;7395402;19;20882;-48
2023/08/04 07:49:35;;;;;;;6.20;2.50;;;;;;;16.70;100.00;100781.31;7370486;19;20482;-51
2023/08/04 07:52:08;;;;;;;9.30;5.40;;;;;;;16.70;100.00;100799.56;7392748;19;20408;-48
2023/08/04 07:54:38;;;;;;;7.57;3.43;;;;;;;16.64;100.00;100824.59;7370089;19;20451;-49
2023/08/04 07:57:09;;;;;;;32.43;11.83;;;;;;;16.63;100.00;100843.69;7393330;19;20411;-44
2023/08/04 07:59:39;;;;;;;20.93;10.77;;;;;;;16.55;100.00;100849.66;7371236;19;20402;-49
2023/08/04 08:02:08;;;;;;;10.10;2.93;;;;;;;16.50;100.00;100848.69;7394804;19;20413;-51
2023/08/04 08:04:38;;;;;;;19.17;9.43;;;;;;;16.63;100.00;100848.91;7369845;19;20443;-50
2023/08/04 08:07:10;;;;;;;7.20;3.33;;;;;;;16.60;100.00;100858.44;7395046;19;20957;-48
2023/08/04 08:09:39;;;;;;;24.90;13.03;;;;;;;16.63;100.00;100859.31;7369675;19;20483;-50
2023/08/04 08:12:10;;;;;;;8.03;3.37;;;;;;;16.62;100.00;100862.78;7391353;19;20782;-47
2023/08/04 08:14:40;;;;;;;9.60;4.90;;;;;;;16.54;100.00;100860.03;7369220;19;20443;-47
2023/08/04 08:17:09;;;;;;;5.53;2.30;;;;;;;16.56;100.00;100869.63;7389998;19;20411;-50
2023/08/04 08:19:39;;;;;;;7.87;4.50;;;;;;;16.63;100.00;100861.94;7369619;19;20491;-48
2023/08/04 08:22:11;;;;;;;14.13;5.93;;;;;;;16.69;100.00;100859.44;7392396;19;20408;-50
2023/08/04 08:24:41;;;;;;;4.93;2.17;;;;;;;16.69;100.00;100843.81;7371176;19;20449;-47
2023/08/04 08:27:10;;;;;;;9.63;5.70;;;;;;;16.77;100.00;100852.63;7393398;19;20407;-48
2023/08/04 08:29:41;;;;;;;22.83;10.10;;;;;;;16.69;100.00;100849.00;7367954;19;20411;-45
2023/08/04 08:32:10;;;;;;;39.97;16.40;;;;;;;16.64;100.00;100841.13;7390527;19;20499;-46
2023/08/04 08:34:40;;;;;;;17.00;6.93;;;;;;;16.46;100.00;100842.53;7364218;19;20847;-46
2023/08/04 08:37:12;;;;;;;4.80;2.00;;;;;;;16.54;100.00;100840.09;7392759;19;20407;-48
2023/08/04 08:39:42;;;;;;;9.83;4.90;;;;;;;16.50;100.00;100838.25;7363810;19;20403;-48
2023/08/04 08:42:11;;;;;;;7.80;3.03;;;;;;;16.50;100.00;100825.25;7392183;19;20410;-46
2023/08/04 08:44:41;;;;;;;9.77;4.13;;;;;;;16.55;100.00;100815.78;7367933;19;20443;-48
2023/08/04 08:47:11;;;;;;;25.83;11.83;;;;;;;16.52;100.00;100820.97;7391920;19;20970;-44
2023/08/04 08:49:46;;;;;;;51.47;25.90;;;;;;;16.69;100.00;100817.75;7365315;19;20479;-48
2023/08/04 08:52:19;;;;;;;9.47;3.37;;;;;;;16.80;100.00;100810.13;7391402;19;20501;-46
2023/08/04 08:54:49;;;;;;;9.27;4.37;;;;;;;16.82;100.00;100814.50;7365066;19;21042;-48
2023/08/04 08:57:19;;;;;;;11.50;5.87;;;;;;;16.67;100.00;100803.84;7387478;19;20942;-49
2023/08/04 08:59:49;;;;;;;9.90;5.53;;;;;;;16.70;100.00;100803.88;7362627;19;20396;-47
2023/08/04 09:02:18;;;;;;;17.50;8.83;;;;;;;16.68;100.00;100808.19;7389042;19;20479;-49
2023/08/04 09:04:48;;;;;;;9.77;5.33;;;;;;;16.73;100.00;100814.38;7363500;19;20806;-47
2023/08/04 09:07:17;;;;;;;8.80;4.63;;;;;;;16.75;100.00;100828.28;7389567;19;20810;-46
2023/08/04 09:09:48;;;;;;;8.93;5.13;;;;;;;16.67;100.00;100850.72;7366450;19;20494;-52
2023/08/04 09:12:18;;;;;;;4.60;2.00;;;;;;;16.75;100.00;100875.19;7389491;19;20432;-48
2023/08/04 09:14:54;;;;;;;4.73;1.63;;;;;;;16.90;100.00;100891.94;7366045;19;20456;-47
2023/08/04 09:17:42;;;;;;;5.83;2.70;;;;;;;16.91;100.00;100922.38;7389232;19;20414;-45
2023/08/04 09:20:13;;;;;;;7.77;3.87;;;;;;;16.97;100.00;100931.16;7367239;19;20803;-49
2023/08/04 09:22:48;;;;;;;6.63;1.90;;;;;;;17.11;100.00;100949.69;7387404;19;20407;-48
2023/08/04 09:25:18;;;;;;;7.63;3.63;;;;;;;16.91;100.00;100970.13;7366870;19;21392;-46
2023/08/04 09:27:49;;;;;;;5.10;3.10;;;;;;;16.96;100.00;100984.13;7387908;19;20411;-51
2023/08/04 09:30:20;;;;;;;3.33;1.93;;;;;;;17.09;100.00;100977.47;7366357;19;21085;-46
2023/08/04 09:32:51;;;;;;;5.53;2.40;;;;;;;17.22;100.00;100977.69;7388201;19;20411;-48
2023/08/04 09:35:21;;;;;;;3.80;1.60;;;;;;;17.25;100.00;100975.13;7367266;19;20446;-46
2023/08/04 09:37:56;;;;;;;3.13;1.70;;;;;;;17.35;100.00;100977.06;7390970;19;20413;-48
2023/08/04 09:40:26;;;;;;;8.13;2.03;;;;;;;17.53;100.00;100986.91;7366755;19;20507;-47
2023/08/04 09:42:59;;;;;;;8.40;3.73;;;;;;;17.64;100.00;100989.69;7388950;19;21017;-49
2023/08/04 09:45:29;;;;;;;7.90;3.30;;;;;;;17.86;100.00;100997.88;7365835;19;20799;-50
2023/08/04 09:47:59;;;;;;;9.50;3.07;;;;;;;17.97;100.00;101000.63;7391258;19;20498;-47
2023/08/04 09:50:28;;;;;;;7.90;2.50;;;;;;;17.83;100.00;101012.59;7367284;19;20419;-49
2023/08/04 09:53:06;;;;;;;4.80;1.77;;;;;;;17.63;100.00;101027.06;7389790;19;20560;-50
2023/08/04 09:55:35;;;;;;;8.70;3.53;;;;;;;17.64;100.00;101028.81;7366498;19;20475;-48
2023/08/04 09:58:06;;;;;;;7.40;3.23;;;;;;;17.46;100.00;101020.69;7393013;19;20544;-46
2023/08/04 10:00:35;;;;;;;16.10;4.20;;;;;;;17.60;100.00;101018.31;7361195;19;20419;-49
2023/08/04 10:03:05;;;;;;;12.73;5.27;;;;;;;17.71;100.00;101013.25;7389892;19;20411;-48
2023/08/04 10:05:35;;;;;;;6.80;3.03;;;;;;;17.67;100.00;101018.44;7365466;19;20421;-51
2023/08/04 10:08:08;;;;;;;14.13;5.50;;;;;;;17.63;100.00;101045.31;7389647;19;20411;-49
2023/08/04 10:10:38;;;;;;;5.57;2.13;;;;;;;17.62;100.00;101035.75;7365823;19;20423;-48
2023/08/04 10:13:08;;;;;;;8.70;3.13;;;;;;;17.66;100.00;101034.97;7388352;19;20417;-48
2023/08/04 10:15:37;;;;;;;6.03;2.47;;;;;;;17.54;100.00;101029.53;7365130;19;20511;-51
2023/08/04 10:18:07;;;;;;;5.83;2.63;;;;;;;17.41;100.00;101037.13;7389699;19;20979;-53
2023/08/04 10:20:37;;;;;;;8.57;2.40;;;;;;;17.22;100.00;101017.66;7365539;19;20423;-50
2023/08/04 10:23:09;;;;;;;21.50;9.07;;;;;;;17.08;100.00;101004.34;7389240;19;20411;-49
2023/08/04 10:25:39;;;;;;;17.20;6.43;;;;;;;16.86;100.00;100972.66;7364677;19;20486;-47
2023/08/04 10:28:09;;;;;;;4.80;1.90;;;;;;;16.72;100.00;100964.56;7389993;19;20515;-47
2023/08/04 10:30:38;;;;;;;12.77;5.50;;;;;;;16.68;100.00;100949.75;7361822;19;20443;-51
2023/08/04 10:33:22;;;;;;;17.87;6.90;;;;;;;16.84;100.00;100950.91;7389241;19;20461;-50
2023/08/04 10:36:09;;;;;;;4.50;1.83;;;;;;;16.82;100.00;100950.00;7365310;19;20423;-49
2023/08/04 10:38:49;;;;;;;13.80;6.47;;;;;;;17.01;100.00;100965.97;7389188;19;20408;-52
2023/08/04 10:41:19;;;;;;;7.20;3.40;;;;;;;17.48;100.00;100978.13;7370582;19;20985;-48
2023/08/04 10:44:02;;;;;;;33.83;13.43;;;;;;;17.75;100.00;100991.59;7397821;19;20449;-48
2023/08/04 10:46:34;;;;;;;3.73;1.37;;;;;;;17.97;100.00;101020.63;7371397;19;20970;-51
2023/08/04 10:49:04;;;;;;;18.60;8.23;;;;;;;18.11;100.00;101037.44;7396965;19;20412;-51
2023/08/04 10:51:34;;;;;;;13.40;6.10;;;;;;;18.51;100.00;101052.75;7371074;19;20439;-52
2023/08/04 10:54:06;;;;;;;9.27;3.30;;;;;;;18.60;100.00;101068.59;7396313;19;20546;-50
2023/08/04 10:56:39;;;;;;;4.40;2.10;;;;;;;18.69;100.00;101074.78;7372052;19;20522;-49
2023/08/04 10:59:12;;;;;;;8.10;3.10;;;;;;;18.28;100.00;101084.69;7395946;19;21067;-50
2023/08/04 11:01:41;;;;;;;4.00;1.37;;;;;;;18.43;100.00;101083.13;7371086;19;21275;-49
2023/08/04 11:04:11;;;;;;;12.10;2.30;;;;;;;18.36;100.00;101079.56;7396615;19;20899;-48
2023/08/04 11:06:41;;;;;;;13.30;6.00;;;;;;;18.29;100.00;101083.81;7371405;19;20437;-52
2023/08/04 11:09:14;;;;;;;19.80;9.80;;;;;;;18.35;100.00;101078.69;7395063;19;20403;-52
2023/08/04 11:11:43;;;;;;;6.67;2.87;;;;;;;18.51;100.00;101084.13;7372021;19;20441;-53
2023/08/04 11:14:13;;;;;;;4.73;1.83;;;;;;;18.27;100.00;101108.16;7395980;19;20536;-50
2023/08/04 11:16:49;;;;;;;18.83;7.53;;;;;;;18.59;100.00;101098.19;7372797;19;20443;-51
2023/08/04 11:19:22;;;;;;;4.20;1.40;;;;;;;18.67;100.00;101097.41;7396407;19;20414;-49
2023/08/04 11:21:51;;;;;;;23.10;10.43;;;;;;;18.82;100.00;101100.22;7371559;19;20807;-52
2023/08/04 11:24:27;;;;;;;4.00;1.70;;;;;;;18.83;100.00;101103.72;7395631;19;20459;-52
2023/08/04 11:26:57;;;;;;;7.23;2.37;;;;;;;18.92;100.00;101095.97;7371499;19;20449;-52